Time;durP1;ratioP1;P1;durP2;ratioP2;P2;SDS_P1;SDS_P2;PMS_P1;PMS_P2;Temp;Humidity;BMP_temperature;BMP_pressure;BME280_temperature;BME280_humidity;BME280_pressure;Samples;Min_cycle;Max_cycle;Signal;HPM_P1;HPM_P2
2022/08/07 00:01:25;;;;;;;;;;;;;;;;;;5031953;28;19920;-78
2022/08/07 00:03:54;;;;;;;;;;;;;;;;;;5009416;28;20015;-80
2022/08/07 00:06:29;;;;;;;;;;;;;;;;;;5021445;28;20010;-79
2022/08/07 00:08:55;;;;;;;;;;;;;;;;;;5023922;28;19940;-80
2022/08/07 00:11:21;;;;;;;;;;;;;;;;;;5049355;28;19987;-79
2022/08/07 00:13:56;;;;;;;;;;;;;;;;;;5026052;28;19929;-80
2022/08/07 00:16:23;;;;;;;;;;;;;;;;;;5046327;28;20036;-79
2022/08/07 00:18:49;;;;;;;;;;;;;;;;;;5035653;28;19960;-80
2022/08/07 00:21:15;;;;;;;;;;;;;;;;;;5046872;28;20357;-78
2022/08/07 00:23:44;;;;;;;;;;;;;;;;;;5046573;28;20005;-79
2022/08/07 00:26:11;;;;;;;;;;;;;;;;;;5016928;28;19964;-80
2022/08/07 00:28:37;;;;;;;;;;;;;;;;;;5026149;28;20334;-79
2022/08/07 00:31:04;;;;;;;;;;;;;;;;;;5029258;28;19927;-78
2022/08/07 00:33:30;;;;;;;;;;;;;;;;;;5046345;28;19917;-80
2022/08/07 00:35:56;;;;;;;;;;;;;;;;;;5044158;28;19925;-79
2022/08/07 00:38:22;;;;;;;;;;;;;;;;;;5044908;28;19955;-79
2022/08/07 00:40:49;;;;;;;;;;;;;;;;;;5040648;28;19968;-80
2022/08/07 00:43:15;;;;;;;;;;;;;;;;;;5044895;28;19964;-78
2022/08/07 00:45:41;;;;;;;;;;;;;;;;;;5026307;28;19975;-80
2022/08/07 00:48:07;;;;;;;;;;;;;;;;;;5026613;28;19944;-79
2022/08/07 00:50:33;;;;;;;;;;;;;;;;;;5031916;28;19970;-77
2022/08/07 00:52:59;;;;;;;;;;;;;;;;;;5021937;28;20553;-78
2022/08/07 00:55:28;;;;;;;;;;;;;;;;;;5025284;28;19957;-77
2022/08/07 00:57:54;;;;;;;;;;;;;;;;;;5025406;28;19972;-77
2022/08/07 01:00:21;;;;;;;;;;;;;;;;;;5042416;28;19951;-79
2022/08/07 01:02:47;;;;;;;;;;;;;;;;;;5023523;28;20367;-78
2022/08/07 01:05:22;;;;;;;;;;;;;;;;;;5029616;28;19948;-81
2022/08/07 01:07:49;;;;;;;;;;;;;;;;;;5033213;28;19953;-81
2022/08/07 01:10:16;;;;;;;;;;;;;;;;;;5029836;28;20012;-81
2022/08/07 01:12:47;;;;;;;;;;;;;;;;;;5026491;28;20312;-81
2022/08/07 01:15:13;;;;;;;;;;;;;;;;;;5019531;28;19964;-82
2022/08/07 01:17:39;;;;;;;;;;;;;;;;;;5010843;28;19929;-80
2022/08/07 01:20:08;;;;;;;;;;;;;;;;;;5041183;28;19913;-81
2022/08/07 01:22:35;;;;;;;;;;;;;;;;;;5043402;28;19948;-80
2022/08/07 01:25:03;;;;;;;;;;;;;;;;;;5021275;28;20115;-81
2022/08/07 01:27:37;;;;;;;;;;;;;;;;;;5010171;28;19921;-79
2022/08/07 01:30:09;;;;;;;;;;;;;;;;;;5023424;28;19979;-82
2022/08/07 01:32:35;;;;;;;;;;;;;;;;;;5031336;28;19924;-81
2022/08/07 01:35:02;;;;;;;;;;;;;;;;;;5047140;28;20427;-81
2022/08/07 01:37:28;;;;;;;;;;;;;;;;;;5017218;28;19964;-79
2022/08/07 01:39:57;;;;;;;;;;;;;;;;;;5047546;28;19956;-80
2022/08/07 01:42:26;;;;;;;;;;;;;;;;;;5018727;28;19975;-81
2022/08/07 01:44:52;;;;;;;;;;;;;;;;;;5031423;28;19960;-78
2022/08/07 01:47:19;;;;;;;;;;;;;;;;;;5032536;28;20406;-80
2022/08/07 01:49:45;;;;;;;;;;;;;;;;;;5000559;28;19921;-79
2022/08/07 01:52:11;;;;;;;;;;;;;;;;;;5036392;28;20357;-79
2022/08/07 01:54:37;;;;;;;;;;;;;;;;;;5042106;28;20405;-79
2022/08/07 01:57:04;;;;;;;;;;;;;;;;;;5030057;28;19960;-79
2022/08/07 01:59:30;;;;;;;;;;;;;;;;;;5027212;28;20404;-78
2022/08/07 02:01:56;;;;;;;;;;;;;;;;;;5029868;28;19948;-80
2022/08/07 02:04:22;;;;;;;;;;;;;;;;;;5028605;28;19944;-79
2022/08/07 02:06:48;;;;;;;;;;;;;;;;;;5039293;28;20495;-81
2022/08/07 02:09:15;;;;;;;;;;;;;;;;;;5039902;28;19932;-82
2022/08/07 02:11:41;;;;;;;;;;;;;;;;;;5042792;28;20668;-82
2022/08/07 02:14:07;;;;;;;;;;;;;;;;;;5040897;28;19972;-82
2022/08/07 02:16:33;;;;;;;;;;;;;;;;;;5042038;28;19928;-82
2022/08/07 02:18:59;;;;;;;;;;;;;;;;;;5042700;28;19960;-79
2022/08/07 02:21:25;;;;;;;;;;;;;;;;;;5036916;28;20421;-79
2022/08/07 02:23:52;;;;;;;;;;;;;;;;;;5030936;28;19956;-80
2022/08/07 02:26:18;;;;;;;;;;;;;;;;;;5040648;28;19967;-80
2022/08/07 02:28:44;;;;;;;;;;;;;;;;;;5045682;28;19948;-80
2022/08/07 02:31:10;;;;;;;;;;;;;;;;;;5024022;28;20546;-80
2022/08/07 02:33:37;;;;;;;;;;;;;;;;;;5042979;28;20001;-79
2022/08/07 02:36:03;;;;;;;;;;;;;;;;;;5042334;28;20332;-80
2022/08/07 02:38:29;;;;;;;;;;;;;;;;;;5045835;28;19966;-80
2022/08/07 02:40:55;;;;;;;;;;;;;;;;;;5033762;28;19956;-80
2022/08/07 02:43:21;;;;;;;;;;;;;;;;;;5046277;28;19999;-79
2022/08/07 02:45:48;;;;;;;;;;;;;;;;;;5040935;28;19949;-80
2022/08/07 02:48:14;;;;;;;;;;;;;;;;;;5045482;28;19947;-79
2022/08/07 02:50:40;;;;;;;;;;;;;;;;;;5041019;28;19967;-81
2022/08/07 02:53:06;;;;;;;;;;;;;;;;;;5029694;28;20333;-80
2022/08/07 02:55:34;;;;;;;;;;;;;;;;;;5041839;28;19956;-80
2022/08/07 02:58:01;;;;;;;;;;;;;;;;;;5038373;28;19960;-80
2022/08/07 03:00:27;;;;;;;;;;;;;;;;;;5027401;28;20013;-80
2022/08/07 03:02:54;;;;;;;;;;;;;;;;;;5044855;28;20028;-80
2022/08/07 03:05:20;;;;;;;;;;;;;;;;;;5045436;28;20330;-81
2022/08/07 03:07:46;;;;;;;;;;;;;;;;;;5040600;28;19967;-80
2022/08/07 03:10:12;;;;;;;;;;;;;;;;;;5040879;28;19948;-80
2022/08/07 03:12:39;;;;;;;;;;;;;;;;;;5040378;28;20724;-80
2022/08/07 03:15:05;;;;;;;;;;;;;;;;;;5028479;28;19920;-80
2022/08/07 03:17:31;;;;;;;;;;;;;;;;;;5047038;28;19971;-78
2022/08/07 03:19:57;;;;;;;;;;;;;;;;;;5035715;28;19929;-79
2022/08/07 03:22:23;;;;;;;;;;;;;;;;;;5027038;28;20639;-80
2022/08/07 03:24:50;;;;;;;;;;;;;;;;;;5043297;28;19960;-80
2022/08/07 03:27:16;;;;;;;;;;;;;;;;;;5034406;28;20397;-80
2022/08/07 03:29:42;;;;;;;;;;;;;;;;;;5025170;28;19944;-80
2022/08/07 03:32:08;;;;;;;;;;;;;;;;;;5043810;28;20408;-78
2022/08/07 03:34:34;;;;;;;;;;;;;;;;;;5042556;28;19955;-79
2022/08/07 03:37:01;;;;;;;;;;;;;;;;;;5045719;28;20018;-78
2022/08/07 03:39:28;;;;;;;;;;;;;;;;;;5046572;28;19916;-78
2022/08/07 03:41:54;;;;;;;;;;;;;;;;;;5045157;28;19955;-79
2022/08/07 03:44:20;;;;;;;;;;;;;;;;;;5043309;28;20010;-79
2022/08/07 03:46:46;;;;;;;;;;;;;;;;;;5044535;28;20411;-79
2022/08/07 03:49:12;;;;;;;;;;;;;;;;;;5046333;28;19976;-79
2022/08/07 03:51:38;;;;;;;;;;;;;;;;;;5033517;28;19952;-77
2022/08/07 03:54:05;;;;;;;;;;;;;;;;;;5024136;28;19952;-79
2022/08/07 03:56:31;;;;;;;;;;;;;;;;;;5047319;28;19963;-81
2022/08/07 03:58:57;;;;;;;;;;;;;;;;;;5041100;28;19972;-79
2022/08/07 04:01:23;;;;;;;;;;;;;;;;;;5045922;28;19956;-78
2022/08/07 04:03:50;;;;;;;;;;;;;;;;;;5003395;28;19953;-79
2022/08/07 04:06:16;;;;;;;;;;;;;;;;;;5046755;28;19951;-78
2022/08/07 04:08:42;;;;;;;;;;;;;;;;;;5039535;28;19964;-78
2022/08/07 04:11:08;;;;;;;;;;;;;;;;;;5039987;28;19952;-79
2022/08/07 04:13:34;;;;;;;;;;;;;;;;;;5042577;28;20381;-80
2022/08/07 04:16:01;;;;;;;;;;;;;;;;;;5040841;28;19952;-80
2022/08/07 04:18:27;;;;;;;;;;;;;;;;;;5043302;28;20471;-80
2022/08/07 04:20:53;;;;;;;;;;;;;;;;;;5040127;28;19991;-81
2022/08/07 04:23:19;;;;;;;;;;;;;;;;;;5045370;28;20401;-79
2022/08/07 04:25:46;;;;;;;;;;;;;;;;;;5038860;28;19940;-79
2022/08/07 04:28:12;;;;;;;;;;;;;;;;;;5044126;28;19948;-79
2022/08/07 04:30:38;;;;;;;;;;;;;;;;;;5044992;28;20556;-78
2022/08/07 04:33:04;;;;;;;;;;;;;;;;;;5035759;28;20394;-78
2022/08/07 04:35:31;;;;;;;;;;;;;;;;;;5038402;28;19964;-79
2022/08/07 04:37:57;;;;;;;;;;;;;;;;;;5033775;28;21239;-79
2022/08/07 04:40:23;;;;;;;;;;;;;;;;;;5027069;28;19959;-79
2022/08/07 04:42:49;;;;;;;;;;;;;;;;;;5039156;28;19956;-79
2022/08/07 04:45:16;;;;;;;;;;;;;;;;;;5045851;28;20385;-79
2022/08/07 04:47:42;;;;;;;;;;;;;;;;;;5045638;28;19971;-78
2022/08/07 04:50:08;;;;;;;;;;;;;;;;;;5046824;28;19940;-79
2022/08/07 04:52:35;;;;;;;;;;;;;;;;;;5039418;28;19957;-80
2022/08/07 04:55:01;;;;;;;;;;;;;;;;;;5045377;28;19925;-80
2022/08/07 04:57:27;;;;;;;;;;;;;;;;;;5045507;28;20511;-80
2022/08/07 04:59:53;;;;;;;;;;;;;;;;;;5040268;28;19982;-81
2022/08/07 05:02:19;;;;;;;;;;;;;;;;;;5044339;28;19963;-81
2022/08/07 05:04:46;;;;;;;;;;;;;;;;;;5041979;28;20373;-78
2022/08/07 05:07:12;;;;;;;;;;;;;;;;;;5044703;28;19960;-78
2022/08/07 05:09:38;;;;;;;;;;;;;;;;;;5027769;28;20101;-78
2022/08/07 05:12:04;;;;;;;;;;;;;;;;;;5049534;28;19948;-79
2022/08/07 05:14:30;;;;;;;;;;;;;;;;;;5043346;28;19956;-79
2022/08/07 05:16:57;;;;;;;;;;;;;;;;;;5047240;28;19956;-78
2022/08/07 05:19:23;;;;;;;;;;;;;;;;;;5045638;28;19956;-78
2022/08/07 05:21:49;;;;;;;;;;;;;;;;;;5047961;28;19948;-80
2022/08/07 05:24:18;;;;;;;;;;;;;;;;;;5047600;28;19952;-79
2022/08/07 05:26:45;;;;;;;;;;;;;;;;;;5031049;28;19956;-79
2022/08/07 05:29:11;;;;;;;;;;;;;;;;;;5047260;28;20526;-79
2022/08/07 05:31:37;;;;;;;;;;;;;;;;;;5046709;28;19956;-77
2022/08/07 05:34:03;;;;;;;;;;;;;;;;;;5052761;28;19960;-79
2022/08/07 05:36:30;;;;;;;;;;;;;;;;;;5026996;28;19963;-79
2022/08/07 05:38:56;;;;;;;;;;;;;;;;;;5042770;28;20447;-80
2022/08/07 05:41:22;;;;;;;;;;;;;;;;;;5047504;28;19917;-78
2022/08/07 05:43:48;;;;;;;;;;;;;;;;;;5048128;28;19944;-79
2022/08/07 05:46:15;;;;;;;;;;;;;;;;;;5046940;28;19971;-80
2022/08/07 05:48:41;;;;;;;;;;;;;;;;;;5045120;28;19948;-79
2022/08/07 05:51:07;;;;;;;;;;;;;;;;;;5043079;28;19956;-79
2022/08/07 05:53:33;;;;;;;;;;;;;;;;;;5042468;28;19960;-79
2022/08/07 05:56:00;;;;;;;;;;;;;;;;;;5040552;28;19949;-80
2022/08/07 05:58:26;;;;;;;;;;;;;;;;;;5045449;28;19972;-79
2022/08/07 06:00:52;;;;;;;;;;;;;;;;;;5044511;28;19944;-79
2022/08/07 06:03:18;;;;;;;;;;;;;;;;;;5046542;28;19952;-79
2022/08/07 06:05:44;;;;;;;;;;;;;;;;;;5046865;28;19944;-79
2022/08/07 06:08:11;;;;;;;;;;;;;;;;;;5044033;28;19925;-81
2022/08/07 06:10:37;;;;;;;;;;;;;;;;;;5047233;28;19960;-81
2022/08/07 06:13:03;;;;;;;;;;;;;;;;;;5039105;28;20424;-80
2022/08/07 06:15:29;;;;;;;;;;;;;;;;;;5046820;28;19968;-79
2022/08/07 06:17:55;;;;;;;;;;;;;;;;;;5041666;28;19967;-80
2022/08/07 06:20:22;;;;;;;;;;;;;;;;;;5045665;28;19968;-80
2022/08/07 06:22:48;;;;;;;;;;;;;;;;;;5044436;28;19963;-79
2022/08/07 06:25:14;;;;;;;;;;;;;;;;;;5045346;28;19920;-80
2022/08/07 06:27:42;;;;;;;;;;;;;;;;;;5043450;28;22119;-80
2022/08/07 06:30:09;;;;;;;;;;;;;;;;;;5045343;28;19967;-81
2022/08/07 06:32:35;;;;;;;;;;;;;;;;;;5043615;28;19917;-81
2022/08/07 06:35:01;;;;;;;;;;;;;;;;;;5027267;28;19944;-81
2022/08/07 06:37:27;;;;;;;;;;;;;;;;;;5046079;28;19944;-80
2022/08/07 06:39:53;;;;;;;;;;;;;;;;;;5026803;28;20380;-79
2022/08/07 06:42:20;;;;;;;;;;;;;;;;;;5044813;28;20384;-79
2022/08/07 06:44:46;;;;;;;;;;;;;;;;;;5046336;28;19952;-79
2022/08/07 06:47:12;;;;;;;;;;;;;;;;;;5046142;28;19956;-79
2022/08/07 06:49:38;;;;;;;;;;;;;;;;;;5042003;28;20024;-82
2022/08/07 06:52:04;;;;;;;;;;;;;;;;;;5044080;28;19959;-83
2022/08/07 06:54:30;;;;;;;;;;;;;;;;;;5046109;28;19964;-80
2022/08/07 06:56:57;;;;;;;;;;;;;;;;;;5045917;28;19921;-80
2022/08/07 06:59:23;;;;;;;;;;;;;;;;;;5047459;28;19964;-79
2022/08/07 07:01:50;;;;;;;;;;;;;;;;;;5043330;28;19944;-82
2022/08/07 07:04:17;;;;;;;;;;;;;;;;;;5039668;28;19956;-78
2022/08/07 07:06:46;;;;;;;;;;;;;;;;;;5044625;28;19956;-80
2022/08/07 07:09:12;;;;;;;;;;;;;;;;;;5043335;28;19960;-79
2022/08/07 07:11:38;;;;;;;;;;;;;;;;;;5043953;28;20327;-77
2022/08/07 07:14:04;;;;;;;;;;;;;;;;;;5046427;28;19975;-82
2022/08/07 07:16:30;;;;;;;;;;;;;;;;;;5043996;28;19959;-82
2022/08/07 07:18:57;;;;;;;;;;;;;;;;;;5042352;28;19965;-82
2022/08/07 07:21:23;;;;;;;;;;;;;;;;;;5042525;28;20362;-84
2022/08/07 07:23:49;;;;;;;;;;;;;;;;;;5022988;28;19952;-83
2022/08/07 07:26:15;;;;;;;;;;;;;;;;;;5040990;28;19948;-84
2022/08/07 07:28:41;;;;;;;;;;;;;;;;;;5043569;28;19960;-85
2022/08/07 07:31:07;;;;;;;;;;;;;;;;;;5029834;28;20405;-85
2022/08/07 07:33:34;;;;;;;;;;;;;;;;;;5027102;28;19955;-86
2022/08/07 07:36:00;;;;;;;;;;;;;;;;;;5020443;28;19944;-84
2022/08/07 07:38:26;;;;;;;;;;;;;;;;;;5042432;28;20404;-83
2022/08/07 07:40:53;;;;;;;;;;;;;;;;;;5040907;28;20010;-84
2022/08/07 07:43:19;;;;;;;;;;;;;;;;;;5024474;28;20403;-84
2022/08/07 07:45:45;;;;;;;;;;;;;;;;;;5044330;28;19959;-84
2022/08/07 07:48:11;;;;;;;;;;;;;;;;;;5043158;28;19916;-84
2022/08/07 07:50:37;;;;;;;;;;;;;;;;;;5041430;28;19963;-84
2022/08/07 07:53:06;;;;;;;;;;;;;;;;;;5021501;28;19952;-84
2022/08/07 07:55:32;;;;;;;;;;;;;;;;;;5040118;28;19960;-83
2022/08/07 07:57:59;;;;;;;;;;;;;;;;;;5040664;28;20348;-84
2022/08/07 08:00:25;;;;;;;;;;;;;;;;;;5042554;28;19952;-84
2022/08/07 08:02:51;;;;;;;;;;;;;;;;;;5040880;28;19966;-83
2022/08/07 08:05:17;;;;;;;;;;;;;;;;;;5042074;28;19960;-83
2022/08/07 08:07:43;;;;;;;;;;;;;;;;;;5041880;28;20488;-83
2022/08/07 08:10:10;;;;;;;;;;;;;;;;;;5043434;28;19948;-83
2022/08/07 08:12:36;;;;;;;;;;;;;;;;;;5024305;28;20017;-83
2022/08/07 08:15:02;;;;;;;;;;;;;;;;;;5041217;28;19959;-83
2022/08/07 08:17:28;;;;;;;;;;;;;;;;;;5042781;28;19980;-83
2022/08/07 08:19:54;;;;;;;;;;;;;;;;;;5024031;28;19991;-82
2022/08/07 08:27:52;;;;;;;;;;;;;;;;;;5046253;28;20296;-79
2022/08/07 08:30:18;;;;;;;;;;;;;;;;;;5045456;28;19964;-77
2022/08/07 08:32:44;;;;;;;;;;;;;;;;;;5046942;28;19962;-78
2022/08/07 08:35:11;;;;;;;;;;;;;;;;;;5041694;28;19967;-79
2022/08/07 08:37:37;;;;;;;;;;;;;;;;;;5048427;28;19952;-81
2022/08/07 08:40:03;;;;;;;;;;;;;;;;;;5043951;28;19960;-81
2022/08/07 08:42:29;;;;;;;;;;;;;;;;;;5046499;28;20007;-81
2022/08/07 08:44:55;;;;;;;;;;;;;;;;;;5046091;28;19964;-79
2022/08/07 08:47:22;;;;;;;;;;;;;;;;;;5031263;28;19974;-79
2022/08/07 08:49:49;;;;;;;;;;;;;;;;;;5045479;28;19970;-79
2022/08/07 08:52:15;;;;;;;;;;;;;;;;;;5045274;28;19951;-79
2022/08/07 08:54:41;;;;;;;;;;;;;;;;;;5028707;28;20362;-78
2022/08/07 08:57:07;;;;;;;;;;;;;;;;;;5046551;28;20455;-78
2022/08/07 08:59:35;;;;;;;;;;;;;;;;;;5047785;28;19920;-80
2022/08/07 09:02:01;;;;;;;;;;;;;;;;;;5045732;28;20298;-80
2022/08/07 09:04:27;;;;;;;;;;;;;;;;;;5047210;28;19948;-81
2022/08/07 09:06:53;;;;;;;;;;;;;;;;;;5047300;28;19959;-79
2022/08/07 09:09:19;;;;;;;;;;;;;;;;;;5048566;28;19929;-79
2022/08/07 09:11:45;;;;;;;;;;;;;;;;;;5040695;28;20481;-79
2022/08/07 09:14:12;;;;;;;;;;;;;;;;;;5046665;28;19956;-79
2022/08/07 09:16:38;;;;;;;;;;;;;;;;;;5046595;28;19964;-80
2022/08/07 09:19:04;;;;;;;;;;;;;;;;;;5045894;28;19956;-80
2022/08/07 09:21:30;;;;;;;;;;;;;;;;;;5047335;28;19948;-80
2022/08/07 09:23:56;;;;;;;;;;;;;;;;;;5045161;28;20385;-79
2022/08/07 09:26:23;;;;;;;;;;;;;;;;;;5044617;28;20349;-79
2022/08/07 09:28:50;;;;;;;;;;;;;;;;;;5047037;28;19940;-77
2022/08/07 09:31:16;;;;;;;;;;;;;;;;;;5046398;28;20094;-79
2022/08/07 09:33:42;;;;;;;;;;;;;;;;;;5028162;28;19955;-79
2022/08/07 09:36:08;;;;;;;;;;;;;;;;;;5045628;28;19941;-78
2022/08/07 09:38:35;;;;;;;;;;;;;;;;;;5046426;28;19979;-79
2022/08/07 09:41:01;;;;;;;;;;;;;;;;;;5044071;28;19962;-77
2022/08/07 09:43:28;;;;;;;;;;;;;;;;;;5015998;28;19941;-78
2022/08/07 09:45:54;;;;;;;;;;;;;;;;;;5045605;28;19963;-79
2022/08/07 09:48:20;;;;;;;;;;;;;;;;;;5036071;28;19948;-79
2022/08/07 09:50:46;;;;;;;;;;;;;;;;;;5039658;28;19967;-79
2022/08/07 09:53:13;;;;;;;;;;;;;;;;;;5033487;28;19948;-79
2022/08/07 09:55:39;;;;;;;;;;;;;;;;;;5041226;28;19964;-79
2022/08/07 09:58:05;;;;;;;;;;;;;;;;;;5030001;28;19948;-78
2022/08/07 10:00:31;;;;;;;;;;;;;;;;;;5044138;28;20014;-80
2022/08/07 10:02:58;;;;;;;;;;;;;;;;;;5047058;28;19987;-79
2022/08/07 10:05:24;;;;;;;;;;;;;;;;;;5030588;28;19923;-79
2022/08/07 10:07:50;;;;;;;;;;;;;;;;;;5045577;28;19956;-80
2022/08/07 10:10:16;;;;;;;;;;;;;;;;;;5023705;28;20346;-79
2022/08/07 10:12:42;;;;;;;;;;;;;;;;;;5040003;28;19955;-81
2022/08/07 10:15:08;;;;;;;;;;;;;;;;;;5045821;28;19991;-79
2022/08/07 10:17:35;;;;;;;;;;;;;;;;;;5043892;28;19952;-78
2022/08/07 10:20:01;;;;;;;;;;;;;;;;;;5047181;28;20387;-79
2022/08/07 10:22:27;;;;;;;;;;;;;;;;;;5044039;28;19948;-80
2022/08/07 10:24:53;;;;;;;;;;;;;;;;;;5045245;28;20665;-78
2022/08/07 10:27:19;;;;;;;;;;;;;;;;;;5012687;28;20001;-79
2022/08/07 10:29:45;;;;;;;;;;;;;;;;;;5044156;28;19964;-78
2022/08/07 10:32:12;;;;;;;;;;;;;;;;;;5041096;28;19960;-78
2022/08/07 10:34:38;;;;;;;;;;;;;;;;;;5042297;28;19971;-78
2022/08/07 10:37:04;;;;;;;;;;;;;;;;;;5042184;28;20415;-78
2022/08/07 10:39:30;;;;;;;;;;;;;;;;;;5025741;28;20054;-78
2022/08/07 10:41:56;;;;;;;;;;;;;;;;;;5044694;28;19959;-81
2022/08/07 10:44:23;;;;;;;;;;;;;;;;;;5042270;28;19956;-84
2022/08/07 10:46:49;;;;;;;;;;;;;;;;;;5024060;28;20036;-83
2022/08/07 10:49:15;;;;;;;;;;;;;;;;;;5044369;28;19960;-82
2022/08/07 10:51:41;;;;;;;;;;;;;;;;;;5041805;28;19986;-80
2022/08/07 10:54:07;;;;;;;;;;;;;;;;;;5027975;28;19967;-81
2022/08/07 10:56:34;;;;;;;;;;;;;;;;;;5044493;28;20526;-81
2022/08/07 10:59:00;;;;;;;;;;;;;;;;;;5044335;28;19976;-83
2022/08/07 11:01:26;;;;;;;;;;;;;;;;;;5023865;28;19952;-82
2022/08/07 11:03:52;;;;;;;;;;;;;;;;;;5051842;28;19924;-81
2022/08/07 11:06:19;;;;;;;;;;;;;;;;;;5029996;28;19968;-83
2022/08/07 11:08:45;;;;;;;;;;;;;;;;;;5044246;28;20442;-81
2022/08/07 11:11:11;;;;;;;;;;;;;;;;;;5046483;28;19948;-76
2022/08/07 11:13:38;;;;;;;;;;;;;;;;;;5045355;28;19951;-79
2022/08/07 11:16:04;;;;;;;;;;;;;;;;;;5044076;28;19925;-78
2022/08/07 11:18:30;;;;;;;;;;;;;;;;;;5043160;28;19968;-78
2022/08/07 11:20:56;;;;;;;;;;;;;;;;;;5042138;28;19956;-79
2022/08/07 11:23:22;;;;;;;;;;;;;;;;;;5039745;28;19995;-84
2022/08/07 11:25:49;;;;;;;;;;;;;;;;;;5041964;28;19941;-82
2022/08/07 11:28:15;;;;;;;;;;;;;;;;;;5039111;28;19972;-83
2022/08/07 11:30:42;;;;;;;;;;;;;;;;;;5043771;28;19996;-81
2022/08/07 11:33:08;;;;;;;;;;;;;;;;;;5039672;28;19948;-79
2022/08/07 11:35:34;;;;;;;;;;;;;;;;;;5028332;28;19952;-80
2022/08/07 11:38:01;;;;;;;;;;;;;;;;;;5026780;28;19952;-78
2022/08/07 11:40:30;;;;;;;;;;;;;;;;;;5043562;28;20025;-86
2022/08/07 11:42:57;;;;;;;;;;;;;;;;;;5044598;28;19967;-85
2022/08/07 11:45:23;;;;;;;;;;;;;;;;;;5044508;28;20039;-80
2022/08/07 11:47:49;;;;;;;;;;;;;;;;;;5041028;28;19963;-83
2022/08/07 11:50:16;;;;;;;;;;;;;;;;;;5035068;28;19960;-83
2022/08/07 11:52:42;;;;;;;;;;;;;;;;;;5036307;28;19957;-79
2022/08/07 11:55:09;;;;;;;;;;;;;;;;;;5042856;28;19963;-81
2022/08/07 11:57:36;;;;;;;;;;;;;;;;;;5046633;28;19952;-81
2022/08/07 12:00:04;;;;;;;;;;;;;;;;;;5040330;28;20054;-81
2022/08/07 12:02:30;;;;;;;;;;;;;;;;;;5024711;28;19960;-82
2022/08/07 12:04:57;;;;;;;;;;;;;;;;;;5026345;28;19956;-82
2022/08/07 12:07:23;;;;;;;;;;;;;;;;;;5045896;28;19968;-84
2022/08/07 12:09:49;;;;;;;;;;;;;;;;;;5028415;28;19952;-84
2022/08/07 12:12:15;;;;;;;;;;;;;;;;;;5045028;28;19959;-83
2022/08/07 12:14:41;;;;;;;;;;;;;;;;;;5028241;28;20521;-80
2022/08/07 12:17:07;;;;;;;;;;;;;;;;;;5043206;28;20012;-79
2022/08/07 12:19:34;;;;;;;;;;;;;;;;;;5036990;28;19928;-82
2022/08/07 12:22:00;;;;;;;;;;;;;;;;;;5040487;28;19924;-80
2022/08/07 12:24:26;;;;;;;;;;;;;;;;;;5038122;28;19971;-79
2022/08/07 12:26:52;;;;;;;;;;;;;;;;;;5040031;28;19956;-79
2022/08/07 12:29:18;;;;;;;;;;;;;;;;;;5044544;28;20352;-81
2022/08/07 12:31:45;;;;;;;;;;;;;;;;;;5042880;28;19948;-80
2022/08/07 12:34:11;;;;;;;;;;;;;;;;;;5010959;28;19945;-80
2022/08/07 12:36:37;;;;;;;;;;;;;;;;;;5045484;28;19944;-81
2022/08/07 12:39:03;;;;;;;;;;;;;;;;;;5043164;28;19965;-80
2022/08/07 12:41:29;;;;;;;;;;;;;;;;;;5021863;28;20507;-82
2022/08/07 12:43:55;;;;;;;;;;;;;;;;;;5038816;28;19967;-81
2022/08/07 12:46:22;;;;;;;;;;;;;;;;;;5045705;28;19960;-81
2022/08/07 12:48:48;;;;;;;;;;;;;;;;;;5042757;28;19963;-81
2022/08/07 12:51:14;;;;;;;;;;;;;;;;;;5041695;28;19940;-79
2022/08/07 12:53:42;;;;;;;;;;;;;;;;;;5042965;28;19955;-78
2022/08/07 12:56:09;;;;;;;;;;;;;;;;;;5041941;28;19949;-79
2022/08/07 12:58:36;;;;;;;;;;;;;;;;;;5047298;28;19964;-77
2022/08/07 13:01:02;;;;;;;;;;;;;;;;;;5044222;28;19960;-74
2022/08/07 13:03:28;;;;;;;;;;;;;;;;;;5041156;28;19956;-75
2022/08/07 13:05:54;;;;;;;;;;;;;;;;;;5044913;28;20644;-75
2022/08/07 13:08:21;;;;;;;;;;;;;;;;;;5048460;28;19975;-75
2022/08/07 13:10:47;;;;;;;;;;;;;;;;;;5045942;28;19947;-76
2022/08/07 13:13:13;;;;;;;;;;;;;;;;;;5047236;28;19964;-74
2022/08/07 13:15:41;;;;;;;;;;;;;;;;;;5045161;28;19981;-77
2022/08/07 13:18:07;;;;;;;;;;;;;;;;;;5047400;28;19944;-74
2022/08/07 13:20:33;;;;;;;;;;;;;;;;;;5028802;28;19948;-81
2022/08/07 13:23:00;;;;;;;;;;;;;;;;;;5047496;28;19924;-79
2022/08/07 13:25:26;;;;;;;;;;;;;;;;;;5044180;28;20373;-79
2022/08/07 13:27:52;;;;;;;;;;;;;;;;;;5045107;28;19967;-79
2022/08/07 13:30:18;;;;;;;;;;;;;;;;;;5048541;28;19955;-76
2022/08/07 13:32:44;;;;;;;;;;;;;;;;;;5047523;28;19974;-81
2022/08/07 13:35:11;;;;;;;;;;;;;;;;;;5056782;28;19956;-80
2022/08/07 13:37:39;;;;;;;;;;;;;;;;;;5039784;28;19944;-80
2022/08/07 13:40:05;;;;;;;;;;;;;;;;;;5021517;28;19941;-79
2022/08/07 13:42:32;;;;;;;;;;;;;;;;;;5045128;28;19944;-80
2022/08/07 13:44:58;;;;;;;;;;;;;;;;;;5043227;28;20333;-80
2022/08/07 13:47:24;;;;;;;;;;;;;;;;;;5044737;28;19952;-80
2022/08/07 13:49:50;;;;;;;;;;;;;;;;;;5043535;28;19964;-79
2022/08/07 13:52:16;;;;;;;;;;;;;;;;;;5040934;28;19999;-80
2022/08/07 13:54:42;;;;;;;;;;;;;;;;;;5047182;28;20360;-81
2022/08/07 13:57:11;;;;;;;;;;;;;;;;;;5040032;28;19920;-81
2022/08/07 13:59:37;;;;;;;;;;;;;;;;;;5047651;28;19956;-81
2022/08/07 14:02:07;;;;;;;;;;;;;;;;;;5043234;28;20342;-80
2022/08/07 14:04:33;;;;;;;;;;;;;;;;;;5046541;28;19964;-80
2022/08/07 14:07:00;;;;;;;;;;;;;;;;;;5042134;28;20085;-80
2022/08/07 14:09:26;;;;;;;;;;;;;;;;;;5041991;28;19972;-81
2022/08/07 14:11:52;;;;;;;;;;;;;;;;;;5047845;28;19944;-81
2022/08/07 14:14:18;;;;;;;;;;;;;;;;;;5041712;28;19913;-80
2022/08/07 14:16:45;;;;;;;;;;;;;;;;;;5034538;28;19959;-79
2022/08/07 14:19:11;;;;;;;;;;;;;;;;;;5041127;28;20404;-81
2022/08/07 14:21:37;;;;;;;;;;;;;;;;;;5048518;28;20048;-79
2022/08/07 14:24:03;;;;;;;;;;;;;;;;;;5041613;28;20022;-80
2022/08/07 14:26:29;;;;;;;;;;;;;;;;;;5045593;28;20533;-79
2022/08/07 14:28:56;;;;;;;;;;;;;;;;;;5040769;28;20059;-79
2022/08/07 14:31:22;;;;;;;;;;;;;;;;;;5040296;28;20458;-80
2022/08/07 14:33:48;;;;;;;;;;;;;;;;;;5048384;28;19952;-80
2022/08/07 14:36:14;;;;;;;;;;;;;;;;;;5044582;28;19952;-80
2022/08/07 14:38:41;;;;;;;;;;;;;;;;;;5047198;28;19978;-80
2022/08/07 14:41:07;;;;;;;;;;;;;;;;;;5048432;28;19952;-80
2022/08/07 14:43:33;;;;;;;;;;;;;;;;;;5047772;28;19968;-80
2022/08/07 14:46:00;;;;;;;;;;;;;;;;;;5047292;28;19949;-80
2022/08/07 14:48:26;;;;;;;;;;;;;;;;;;5042235;28;19971;-80
2022/08/07 14:50:52;;;;;;;;;;;;;;;;;;5041504;28;20686;-79
2022/08/07 14:53:18;;;;;;;;;;;;;;;;;;5040999;28;20348;-80
2022/08/07 14:55:44;;;;;;;;;;;;;;;;;;5042949;28;19952;-79
2022/08/07 14:58:11;;;;;;;;;;;;;;;;;;5027873;28;19960;-79
2022/08/07 15:00:37;;;;;;;;;;;;;;;;;;5043602;28;19917;-80
2022/08/07 15:03:03;;;;;;;;;;;;;;;;;;5044836;28;19944;-79
2022/08/07 15:05:29;;;;;;;;;;;;;;;;;;5047643;28;20477;-79
2022/08/07 15:07:55;;;;;;;;;;;;;;;;;;5046588;28;20037;-79
2022/08/07 15:10:22;;;;;;;;;;;;;;;;;;5040430;28;19928;-80
2022/08/07 15:12:48;;;;;;;;;;;;;;;;;;5046523;28;19980;-80
2022/08/07 15:15:14;;;;;;;;;;;;;;;;;;5042647;28;19947;-81
2022/08/07 15:17:40;;;;;;;;;;;;;;;;;;5046319;28;19944;-79
2022/08/07 15:20:07;;;;;;;;;;;;;;;;;;5048240;28;19963;-80
2022/08/07 15:22:34;;;;;;;;;;;;;;;;;;5043158;28;19960;-82
2022/08/07 15:25:00;;;;;;;;;;;;;;;;;;5043571;28;20014;-80
2022/08/07 15:27:28;;;;;;;;;;;;;;;;;;5044464;28;19951;-79
2022/08/07 15:29:54;;;;;;;;;;;;;;;;;;5046709;28;19944;-79
2022/08/07 15:32:20;;;;;;;;;;;;;;;;;;5041742;28;20464;-80
2022/08/07 15:34:47;;;;;;;;;;;;;;;;;;5040564;28;19948;-81
2022/08/07 15:37:13;;;;;;;;;;;;;;;;;;5042163;28;19960;-80
2022/08/07 15:39:40;;;;;;;;;;;;;;;;;;5038009;28;20385;-80
2022/08/07 15:42:06;;;;;;;;;;;;;;;;;;5041961;28;20029;-79
2022/08/07 15:44:32;;;;;;;;;;;;;;;;;;5042885;28;19979;-81
2022/08/07 15:46:58;;;;;;;;;;;;;;;;;;5043034;28;19948;-80
2022/08/07 15:49:24;;;;;;;;;;;;;;;;;;5025497;28;19972;-80
2022/08/07 15:51:51;;;;;;;;;;;;;;;;;;5040148;28;20016;-80
2022/08/07 15:54:17;;;;;;;;;;;;;;;;;;5042164;28;20337;-80
2022/08/07 15:56:44;;;;;;;;;;;;;;;;;;5039372;28;19956;-80
2022/08/07 15:59:11;;;;;;;;;;;;;;;;;;5043223;28;20036;-80
2022/08/07 16:01:37;;;;;;;;;;;;;;;;;;5044002;28;19952;-80
2022/08/07 16:04:03;;;;;;;;;;;;;;;;;;5045864;28;19959;-80
2022/08/07 16:06:30;;;;;;;;;;;;;;;;;;5047015;28;19944;-80
2022/08/07 16:08:56;;;;;;;;;;;;;;;;;;5043944;28;19960;-80
2022/08/07 16:11:22;;;;;;;;;;;;;;;;;;5029075;28;19936;-79
2022/08/07 16:13:48;;;;;;;;;;;;;;;;;;5038901;28;19952;-80
2022/08/07 16:16:14;;;;;;;;;;;;;;;;;;5044906;28;19960;-79
2022/08/07 16:18:41;;;;;;;;;;;;;;;;;;5038356;28;20380;-80
2022/08/07 16:21:07;;;;;;;;;;;;;;;;;;5044789;28;19920;-80
2022/08/07 16:23:33;;;;;;;;;;;;;;;;;;5038801;28;20334;-80
2022/08/07 16:26:00;;;;;;;;;;;;;;;;;;5041230;28;22211;-79
2022/08/07 16:28:26;;;;;;;;;;;;;;;;;;5026872;28;20365;-79
2022/08/07 16:30:52;;;;;;;;;;;;;;;;;;5043971;28;19960;-80
2022/08/07 16:33:18;;;;;;;;;;;;;;;;;;5028297;28;20361;-79
2022/08/07 16:35:44;;;;;;;;;;;;;;;;;;5045777;28;19940;-80
2022/08/07 16:38:13;;;;;;;;;;;;;;;;;;5043982;28;19964;-80
2022/08/07 16:40:39;;;;;;;;;;;;;;;;;;5042962;28;19987;-81
2022/08/07 16:43:05;;;;;;;;;;;;;;;;;;5026249;28;20340;-81
2022/08/07 16:45:31;;;;;;;;;;;;;;;;;;5045324;28;19948;-79